Time;durP1;ratioP1;P1;durP2;ratioP2;P2;SDS_P1;SDS_P2;PMS_P1;PMS_P2;Temp;Humidity;BMP_temperature;BMP_pressure;BME280_temperature;BME280_humidity;BME280_pressure;Samples;Min_cycle;Max_cycle;Signal;HPM_P1;HPM_P2
2022/10/17 00:01:37;;;;;;;5.55;5.05;;;15.00;99.90;;;;;;5066843;28;20029;-87
2022/10/17 00:04:02;;;;;;;7.05;6.45;;;14.90;99.90;;;;;;5065462;28;20059;-87
2022/10/17 00:06:29;;;;;;;7.47;5.97;;;15.00;99.90;;;;;;5066322;28;20096;-87
2022/10/17 00:08:54;;;;;;;6.25;5.65;;;15.00;99.90;;;;;;5048870;28;20075;-87
2022/10/17 00:11:22;;;;;;;4.65;4.25;;;15.00;99.90;;;;;;5065190;28;20028;-86
2022/10/17 00:13:50;;;;;;;6.50;5.90;;;14.90;99.90;;;;;;5066555;28;20041;-87
2022/10/17 00:16:24;;;;;;;5.80;5.30;;;14.90;99.90;;;;;;5065049;28;20104;-87
2022/10/17 00:18:51;;;;;;;6.32;5.82;;;14.90;99.90;;;;;;5048483;28;20032;-87
2022/10/17 00:21:18;;;;;;;5.38;4.88;;;14.90;99.90;;;;;;5048430;28;20025;-87
2022/10/17 00:23:44;;;;;;;4.95;4.55;;;14.90;99.90;;;;;;5048500;28;20092;-87
2022/10/17 00:26:10;;;;;;;6.00;5.20;;;14.90;99.90;;;;;;5064884;28;20033;-86
2022/10/17 00:28:36;;;;;;;9.18;5.40;;;14.90;99.90;;;;;;5047607;28;20524;-87
2022/10/17 00:31:04;;;;;;;4.90;4.50;;;14.90;99.90;;;;;;5048535;28;20060;-87
2022/10/17 00:33:32;;;;;;;5.13;4.63;;;14.90;99.90;;;;;;5065062;28;20119;-87
2022/10/17 00:36:21;;;;;;;4.88;4.03;;;14.90;99.90;;;;;;5064930;28;20017;-87
2022/10/17 00:38:51;;;;;;;4.88;4.53;;;14.90;99.90;;;;;;5064702;28;20025;-87
2022/10/17 00:41:19;;;;;;;5.18;4.20;;;14.90;99.90;;;;;;5064874;28;20099;-86
2022/10/17 00:43:56;;;;;;;5.18;4.70;;;14.90;99.90;;;;;;5064781;28;20085;-87
2022/10/17 00:46:31;;;;;;;4.15;3.75;;;14.90;99.90;;;;;;5064824;28;20100;-87
2022/10/17 00:49:02;;;;;;;5.65;4.63;;;14.90;99.90;;;;;;5064621;28;20088;-87
2022/10/17 00:51:37;;;;;;;4.75;4.35;;;14.90;99.90;;;;;;5048163;28;20103;-87
2022/10/17 00:54:04;;;;;;;6.07;4.53;;;14.90;99.90;;;;;;5066376;28;20025;-87
2022/10/17 00:56:30;;;;;;;4.90;4.50;;;14.90;99.90;;;;;;5064643;28;20037;-88
2022/10/17 00:58:58;;;;;;;5.53;5.03;;;14.90;99.90;;;;;;5047911;28;20081;-87
2022/10/17 01:01:24;;;;;;;4.93;4.53;;;14.90;99.90;;;;;;5048095;28;20025;-86
2022/10/17 01:03:50;;;;;;;4.53;4.13;;;14.90;99.90;;;;;;5064763;28;20021;-87
2022/10/17 01:06:17;;;;;;;4.75;4.32;;;14.90;99.90;;;;;;5064309;28;20024;-87
2022/10/17 01:08:43;;;;;;;4.88;4.38;;;14.90;99.90;;;;;;5047780;28;20029;-87
2022/10/17 01:11:55;;;;;;;5.07;4.57;;;14.80;99.90;;;;;;5069504;28;20029;-87
2022/10/17 01:14:37;;;;;;;6.28;4.65;;;14.80;99.90;;;;;;5051074;28;20037;-86
2022/10/17 01:17:28;;;;;;;3.88;3.58;;;14.80;99.90;;;;;;5068123;28;20052;-86
2022/10/17 01:20:32;;;;;;;4.95;4.60;;;14.80;99.90;;;;;;5068345;28;20036;-87
2022/10/17 01:23:37;;;;;;;5.13;4.63;;;14.80;99.90;;;;;;5011544;28;20029;-87
2022/10/17 01:26:40;;;;;;;7.47;5.10;;;14.80;99.90;;;;;;5003810;28;20092;-87
2022/10/17 01:29:25;;;;;;;5.75;4.80;;;14.80;99.90;;;;;;5051260;28;20049;-86
2022/10/17 01:32:04;;;;;;;5.45;4.10;;;14.80;99.90;;;;;;5068216;28;20067;-86
2022/10/17 01:34:36;;;;;;;4.97;4.55;;;14.80;99.90;;;;;;5068302;28;20116;-87
2022/10/17 01:37:15;;;;;;;4.82;4.38;;;14.80;99.90;;;;;;5068021;28;20083;-86
2022/10/17 01:39:54;;;;;;;5.18;4.32;;;14.80;99.90;;;;;;5051814;28;20043;-86
2022/10/17 01:42:25;;;;;;;7.15;5.60;;;14.80;99.90;;;;;;5068453;28;20491;-86
2022/10/17 01:45:06;;;;;;;7.65;4.80;;;14.80;99.90;;;;;;5068071;28;20044;-87
2022/10/17 01:47:33;;;;;;;5.65;5.25;;;14.80;99.90;;;;;;5048870;28;20060;-87
2022/10/17 01:50:09;;;;;;;5.47;4.97;;;14.80;99.90;;;;;;5051399;28;20092;-87
2022/10/17 01:53:08;;;;;;;4.60;3.65;;;14.80;99.90;;;;;;5051510;28;20029;-86
2022/10/17 01:55:37;;;;;;;4.23;3.93;;;14.80;99.90;;;;;;5065568;28;20037;-87
2022/10/17 01:58:15;;;;;;;4.93;4.47;;;14.80;99.90;;;;;;5051019;28;20021;-85
2022/10/17 02:00:44;;;;;;;5.63;5.22;;;14.80;99.90;;;;;;5067700;28;20044;-86
2022/10/17 02:03:14;;;;;;;5.65;5.18;;;14.80;99.90;;;;;;5067598;28;20040;-86
2022/10/17 02:05:42;;;;;;;4.85;4.45;;;14.80;99.90;;;;;;5067548;28;20078;-87
2022/10/17 02:08:09;;;;;;;4.07;3.67;;;14.80;99.90;;;;;;5067647;28;20021;-87
2022/10/17 02:10:44;;;;;;;5.25;4.82;;;14.80;99.90;;;;;;5067750;28;20029;-87
2022/10/17 02:13:16;;;;;;;4.90;4.50;;;14.80;99.90;;;;;;5067474;28;20064;-87
2022/10/17 02:15:51;;;;;;;5.50;4.72;;;14.80;99.90;;;;;;5067308;28;20020;-87
2022/10/17 02:18:37;;;;;;;6.40;5.90;;;14.80;99.90;;;;;;5067451;28;20029;-86
2022/10/17 02:21:24;;;;;;;5.63;4.72;;;14.80;99.90;;;;;;5050688;28;20032;-86
2022/10/17 02:24:18;;;;;;;6.22;5.72;;;14.70;99.90;;;;;;5067572;28;20025;-87
2022/10/17 02:26:54;;;;;;;4.93;4.53;;;14.70;99.90;;;;;;5050309;28;20094;-86
2022/10/17 02:29:24;;;;;;;5.35;4.85;;;14.70;99.90;;;;;;5067080;28;20041;-87
2022/10/17 02:32:13;;;;;;;7.38;5.50;;;14.70;99.90;;;;;;5067584;28;20033;-86
2022/10/17 02:34:49;;;;;;;5.18;4.78;;;14.70;99.90;;;;;;5067324;28;20021;-86
2022/10/17 02:37:20;;;;;;;5.90;5.30;;;14.70;99.90;;;;;;5068322;28;20021;-86
2022/10/17 02:39:48;;;;;;;5.72;5.13;;;14.70;99.90;;;;;;5067103;28;20096;-87
2022/10/17 02:42:16;;;;;;;6.25;5.65;;;14.70;99.90;;;;;;5050341;28;20108;-87
2022/10/17 02:44:45;;;;;;;5.03;4.63;;;14.70;99.90;;;;;;5050455;28;20036;-86
2022/10/17 02:47:33;;;;;;;6.03;5.57;;;14.70;99.90;;;;;;5066746;28;20031;-87
2022/10/17 02:49:59;;;;;;;8.70;5.97;;;14.70;99.90;;;;;;5066885;28;20105;-87
2022/10/17 02:52:58;;;;;;;5.90;5.43;;;14.60;99.90;;;;;;5050212;28;20021;-86
2022/10/17 02:55:39;;;;;;;5.43;4.22;;;14.60;99.90;;;;;;5066469;28;20017;-86
2022/10/17 02:58:18;;;;;;;6.50;5.90;;;14.60;99.90;;;;;;5066479;28;20017;-87
2022/10/17 03:00:45;;;;;;;5.35;4.65;;;14.60;99.90;;;;;;5066807;28;20036;-87
2022/10/17 03:03:20;;;;;;;6.07;4.78;;;14.90;99.90;;;;;;5050073;28;20025;-86
2022/10/17 03:05:46;;;;;;;5.88;4.68;;;14.60;99.90;;;;;;5066577;28;20057;-86
2022/10/17 03:08:12;;;;;;;6.78;5.40;;;14.60;99.90;;;;;;5066511;28;20033;-87
2022/10/17 03:10:38;;;;;;;6.78;6.18;;;14.60;99.90;;;;;;5049804;28;20031;-87
2022/10/17 03:13:04;;;;;;;5.65;5.22;;;14.60;99.90;;;;;;5050138;28;20032;-87
2022/10/17 03:15:33;;;;;;;4.10;3.80;;;14.60;99.90;;;;;;5065962;28;20029;-87
2022/10/17 03:17:59;;;;;;;8.82;5.53;;;14.60;99.90;;;;;;5049763;28;20025;-87
2022/10/17 03:20:25;;;;;;;5.53;4.70;;;14.60;99.90;;;;;;5049824;28;20036;-87
2022/10/17 03:22:51;;;;;;;4.97;4.57;;;14.60;99.90;;;;;;5049753;28;20025;-87
2022/10/17 03:25:17;;;;;;;8.13;5.15;;;14.60;99.90;;;;;;5033227;28;20565;-87
2022/10/17 03:27:47;;;;;;;5.43;5.03;;;14.60;99.90;;;;;;5014321;28;20049;-87
2022/10/17 03:30:13;;;;;;;5.38;4.95;;;14.60;99.90;;;;;;5045911;28;20033;-87
2022/10/17 03:32:38;;;;;;;5.65;5.25;;;14.60;99.90;;;;;;5029123;28;20141;-87
2022/10/17 03:35:04;;;;;;;6.32;5.25;;;14.60;99.90;;;;;;5046201;28;20030;-88
2022/10/17 03:37:30;;;;;;;5.38;4.90;;;14.60;99.90;;;;;;5047903;28;20109;-87
2022/10/17 03:39:57;;;;;;;5.60;4.38;;;14.60;99.90;;;;;;5033137;28;20025;-87
2022/10/17 03:42:24;;;;;;;6.63;5.75;;;14.60;99.90;;;;;;5049494;28;20036;-86
2022/10/17 03:44:50;;;;;;;6.05;4.80;;;14.60;99.90;;;;;;5032745;28;20033;-87
2022/10/17 03:47:16;;;;;;;5.40;4.43;;;14.60;99.90;;;;;;5065626;28;20402;-87
2022/10/17 03:49:42;;;;;;;6.05;4.60;;;14.60;99.90;;;;;;5065497;28;20083;-86
2022/10/17 03:52:13;;;;;;;4.72;4.32;;;14.60;99.90;;;;;;5032967;28;20048;-87
2022/10/17 03:54:39;;;;;;;5.55;4.97;;;14.60;99.90;;;;;;5048973;28;20032;-87
2022/10/17 03:57:05;;;;;;;5.75;5.25;;;14.60;99.90;;;;;;5048866;28;20021;-87
2022/10/17 03:59:31;;;;;;;4.50;4.15;;;14.60;99.90;;;;;;5032329;28;20041;-87
2022/10/17 04:02:03;;;;;;;6.28;4.57;;;14.60;99.90;;;;;;5049730;28;20062;-87
2022/10/17 04:04:28;;;;;;;4.78;4.38;;;14.60;99.90;;;;;;5049099;28;20033;-87
2022/10/17 04:06:55;;;;;;;6.88;3.80;;;14.60;99.90;;;;;;5045234;28;20021;-86
2022/10/17 04:09:21;;;;;;;6.55;4.88;;;14.60;99.90;;;;;;5028990;28;20044;-87
2022/10/17 04:12:09;;;;;;;4.40;4.00;;;14.60;99.90;;;;;;5048367;28;20036;-86
2022/10/17 04:14:37;;;;;;;5.85;3.25;;;14.60;99.90;;;;;;5045580;28;20143;-87
2022/10/17 04:17:03;;;;;;;8.57;5.25;;;14.60;99.90;;;;;;5038025;28;20043;-86
2022/10/17 04:19:30;;;;;;;10.75;5.32;;;14.60;99.90;;;;;;5060579;28;20033;-86
2022/10/17 04:21:56;;;;;;;3.35;3.13;;;14.60;99.90;;;;;;5048413;28;20053;-87
2022/10/17 04:24:22;;;;;;;5.10;4.00;;;14.60;99.90;;;;;;5031658;28;20386;-87
2022/10/17 04:27:23;;;;;;;6.50;4.32;;;14.60;99.90;;;;;;5054208;28;20048;-86
2022/10/17 04:29:49;;;;;;;5.00;3.78;;;14.70;99.90;;;;;;5048009;28;20116;-87
2022/10/17 04:32:20;;;;;;;4.00;3.70;;;14.70;99.90;;;;;;5048690;28;20021;-87
2022/10/17 04:34:49;;;;;;;6.27;5.00;;;14.60;99.90;;;;;;5048236;28;20104;-86
2022/10/17 04:37:15;;;;;;;6.03;3.97;;;14.70;99.90;;;;;;5048122;28;20366;-87
2022/10/17 04:39:43;;;;;;;4.38;3.97;;;14.70;99.90;;;;;;5064705;28;20121;-87
2022/10/17 04:42:09;;;;;;;4.65;4.25;;;14.70;99.90;;;;;;5047892;28;20067;-86
2022/10/17 04:44:36;;;;;;;5.20;4.80;;;14.70;99.90;;;;;;5031020;28;20037;-86
2022/10/17 04:47:03;;;;;;;6.10;4.57;;;14.70;99.90;;;;;;5031786;28;20100;-85
2022/10/17 04:49:30;;;;;;;8.43;4.78;;;14.70;99.90;;;;;;5064652;28;20052;-87
2022/10/17 04:52:04;;;;;;;4.43;4.03;;;14.70;99.90;;;;;;5033817;28;20024;-87
2022/10/17 04:54:36;;;;;;;5.40;4.88;;;14.70;99.90;;;;;;5062889;28;20048;-87
2022/10/17 04:57:07;;;;;;;4.25;3.85;;;14.70;99.90;;;;;;5064624;28;20472;-86
2022/10/17 04:59:33;;;;;;;5.65;4.82;;;14.80;99.90;;;;;;5064675;28;20029;-86
2022/10/17 05:02:23;;;;;;;4.22;3.90;;;14.80;99.90;;;;;;5064570;28;20057;-87
2022/10/17 05:04:56;;;;;;;4.00;3.60;;;14.80;99.90;;;;;;5064634;28;20401;-86
2022/10/17 05:07:22;;;;;;;5.43;4.93;;;14.80;99.90;;;;;;5047937;28;20036;-87
2022/10/17 05:09:59;;;;;;;5.93;4.93;;;14.80;99.90;;;;;;5045854;28;20065;-87
2022/10/17 05:12:25;;;;;;;8.23;4.65;;;14.80;99.90;;;;;;5031732;28;20564;-87
2022/10/17 05:14:52;;;;;;;6.35;5.45;;;14.80;99.90;;;;;;5047651;28;20060;-87
2022/10/17 05:17:18;;;;;;;12.23;6.22;;;14.80;99.90;;;;;;5011554;28;20029;-87
2022/10/17 05:19:44;;;;;;;6.80;4.65;;;14.80;99.90;;;;;;5063989;28;20548;-86
2022/10/17 05:22:10;;;;;;;4.43;3.97;;;14.80;99.90;;;;;;5030742;28;20032;-86
2022/10/17 05:24:35;;;;;;;5.57;5.07;;;14.80;99.90;;;;;;5047075;28;20036;-86
2022/10/17 05:27:03;;;;;;;5.10;4.45;;;14.80;99.90;;;;;;5064248;28;20497;-87
2022/10/17 05:29:28;;;;;;;5.03;4.53;;;14.80;99.90;;;;;;5064298;28;20985;-87
2022/10/17 05:32:03;;;;;;;5.50;5.03;;;14.80;99.90;;;;;;5033758;28;20055;-87
2022/10/17 05:34:29;;;;;;;5.43;4.53;;;14.80;99.90;;;;;;5047665;28;20540;-87
2022/10/17 05:36:56;;;;;;;12.55;4.90;;;14.80;99.90;;;;;;5063739;28;20025;-87
2022/10/17 05:39:23;;;;;;;5.32;4.03;;;14.80;99.90;;;;;;5063527;28;20029;-87
2022/10/17 05:41:51;;;;;;;5.18;4.70;;;14.80;99.90;;;;;;5047674;28;20496;-87
2022/10/17 05:44:17;;;;;;;5.57;4.75;;;14.80;99.90;;;;;;5047623;28;20052;-87
2022/10/17 05:46:48;;;;;;;11.00;3.97;;;14.80;99.90;;;;;;5048314;28;20041;-87
2022/10/17 05:49:15;;;;;;;4.65;4.25;;;14.90;99.90;;;;;;5064142;28;20025;-87
2022/10/17 05:51:41;;;;;;;10.13;5.00;;;14.80;99.90;;;;;;5047486;28;20040;-86
2022/10/17 05:54:07;;;;;;;6.95;4.90;;;14.90;99.90;;;;;;5047523;28;20018;-87
2022/10/17 05:56:34;;;;;;;4.63;4.30;;;14.90;99.90;;;;;;5066397;28;20025;-87
2022/10/17 05:59:00;;;;;;;5.80;5.40;;;14.90;99.90;;;;;;5067919;28;20021;-87
2022/10/17 06:01:46;;;;;;;5.03;3.88;;;14.90;99.90;;;;;;5053490;28;20017;-87
2022/10/17 06:04:12;;;;;;;5.75;4.72;;;14.90;99.90;;;;;;5050762;28;20028;-87
2022/10/17 06:06:40;;;;;;;6.30;3.08;;;14.90;99.90;;;;;;5067660;28;20021;-88
2022/10/17 06:09:07;;;;;;;4.03;3.63;;;14.90;99.90;;;;;;5051128;28;20025;-87
2022/10/17 06:11:36;;;;;;;;;;;14.90;99.90;;;;;;5067865;28;20429;-87
2022/10/17 06:14:02;;;;;;;6.93;5.38;;;14.90;99.90;;;;;;5067516;28;19916;-87
2022/10/17 06:16:29;;;;;;;5.00;4.38;;;14.90;99.90;;;;;;5067654;28;20033;-87
2022/10/17 06:18:55;;;;;;;6.38;4.95;;;14.90;99.90;;;;;;5050958;28;20029;-88
2022/10/17 06:21:25;;;;;;;8.52;5.65;;;14.90;99.90;;;;;;5067144;28;20025;-87
2022/10/17 06:23:53;;;;;;;6.50;5.18;;;15.00;99.90;;;;;;5051055;28;20032;-87
2022/10/17 06:26:46;;;;;;;7.75;4.40;;;15.00;99.90;;;;;;5053394;28;20045;-87
2022/10/17 06:29:14;;;;;;;5.13;4.30;;;15.00;99.90;;;;;;5067436;28;20056;-87
2022/10/17 06:31:45;;;;;;;4.68;4.38;;;15.00;99.90;;;;;;5051073;28;20398;-87
2022/10/17 06:34:11;;;;;;;4.80;3.42;;;15.00;99.90;;;;;;5050601;28;20037;-87
2022/10/17 06:36:38;;;;;;;6.65;4.95;;;15.00;99.90;;;;;;5050701;28;20488;-87
2022/10/17 06:39:04;;;;;;;5.43;4.88;;;15.00;99.90;;;;;;5067170;28;20485;-88
2022/10/17 06:41:40;;;;;;;4.95;4.55;;;15.00;99.90;;;;;;5066804;28;20025;-87
2022/10/17 06:44:10;;;;;;;4.40;4.00;;;15.10;99.90;;;;;;5066990;28;20116;-88
2022/10/17 06:46:39;;;;;;;4.70;4.28;;;15.00;99.90;;;;;;5067323;28;20105;-87
2022/10/17 06:49:09;;;;;;;6.43;5.82;;;15.10;99.90;;;;;;5034470;28;20094;-87
2022/10/17 06:51:50;;;;;;;7.22;4.45;;;15.10;99.90;;;;;;5052086;28;20028;-87
2022/10/17 06:54:19;;;;;;;9.75;4.88;;;15.10;99.90;;;;;;5050637;28;20163;-86
2022/10/17 06:57:03;;;;;;;5.43;4.93;;;15.10;99.90;;;;;;5066757;28;20033;-87
2022/10/17 06:59:54;;;;;;;4.43;3.92;;;15.10;99.90;;;;;;5066784;28;20119;-87
2022/10/17 07:02:27;;;;;;;6.90;5.18;;;15.10;99.90;;;;;;5066586;28;20025;-87
2022/10/17 07:04:55;;;;;;;5.03;4.25;;;15.10;99.90;;;;;;5050118;28;20025;-88
2022/10/17 07:07:21;;;;;;;5.50;3.63;;;15.10;99.90;;;;;;5065722;28;20048;-87
2022/10/17 07:09:47;;;;;;;9.68;5.80;;;15.20;99.90;;;;;;5049667;28;20048;-87
2022/10/17 07:12:14;;;;;;;4.97;4.32;;;15.20;99.90;;;;;;5066417;28;20025;-88
2022/10/17 07:14:46;;;;;;;3.97;3.63;;;15.20;99.90;;;;;;5034344;28;20021;-87
2022/10/17 07:17:12;;;;;;;8.68;4.25;;;15.20;99.90;;;;;;5049708;28;20020;-87
2022/10/17 07:19:38;;;;;;;13.05;5.35;;;15.20;99.90;;;;;;5066481;28;20120;-88
2022/10/17 07:22:06;;;;;;;4.60;4.25;;;15.30;99.90;;;;;;5045921;28;20029;-87
2022/10/17 07:24:32;;;;;;;10.77;3.97;;;15.30;99.90;;;;;;5046365;28;20073;-88
2022/10/17 07:27:08;;;;;;;5.95;3.97;;;15.30;99.90;;;;;;5062733;28;20045;-88
2022/10/17 07:29:35;;;;;;;4.90;4.47;;;15.30;99.90;;;;;;5063042;28;20029;-88
2022/10/17 07:32:07;;;;;;;4.53;4.13;;;15.30;99.90;;;;;;5065839;28;20064;-88
2022/10/17 07:34:34;;;;;;;5.88;4.13;;;15.40;99.90;;;;;;5033022;28;20089;-88
2022/10/17 07:37:01;;;;;;;7.30;4.95;;;15.40;99.90;;;;;;5066121;28;20029;-87
2022/10/17 07:39:28;;;;;;;5.95;4.30;;;15.40;99.90;;;;;;5049507;28;20032;-88
2022/10/17 07:41:54;;;;;;;6.20;4.80;;;15.50;99.90;;;;;;5045717;28;20057;-88
2022/10/17 07:44:21;;;;;;;7.10;3.78;;;15.50;99.90;;;;;;5046093;28;20033;-87
2022/10/17 07:46:49;;;;;;;6.32;3.95;;;15.50;99.90;;;;;;5046020;28;20048;-88
2022/10/17 07:49:16;;;;;;;9.23;3.85;;;15.50;99.90;;;;;;5045812;28;20384;-88
2022/10/17 07:51:42;;;;;;;5.78;4.72;;;15.60;99.90;;;;;;5065680;28;20032;-87
2022/10/17 07:54:08;;;;;;;7.32;4.78;;;15.60;99.90;;;;;;5049051;28;20021;-87
2022/10/17 07:56:34;;;;;;;9.70;4.63;;;15.60;99.90;;;;;;5067058;28;20028;-88
2022/10/17 07:59:00;;;;;;;3.65;3.33;;;15.60;99.90;;;;;;5065541;28;20062;-88
2022/10/17 08:01:27;;;;;;;3.33;3.05;;;15.60;99.90;;;;;;5066579;28;20033;-88
2022/10/17 08:03:52;;;;;;;6.47;3.58;;;15.60;99.90;;;;;;5049029;28;20037;-88
2022/10/17 08:06:18;;;;;;;6.82;4.88;;;15.70;99.90;;;;;;5048889;28;20029;-88
2022/10/17 08:08:44;;;;;;;8.23;4.57;;;15.70;99.90;;;;;;5065545;28;20035;-88
2022/10/17 08:11:13;;;;;;;4.57;4.03;;;15.80;99.90;;;;;;5048175;28;20055;-88
2022/10/17 08:13:40;;;;;;;5.03;4.60;;;15.70;99.90;;;;;;5065504;28;20029;-87
2022/10/17 08:16:08;;;;;;;5.20;4.05;;;15.80;99.90;;;;;;5032326;28;20025;-88
2022/10/17 08:18:35;;;;;;;5.90;3.28;;;15.80;99.90;;;;;;5065043;28;20036;-88
2022/10/17 08:21:07;;;;;;;6.38;4.53;;;15.80;99.90;;;;;;5065126;28;20029;-88
2022/10/17 08:23:33;;;;;;;3.90;3.60;;;15.80;99.90;;;;;;5028825;28;20029;-88
2022/10/17 08:26:00;;;;;;;3.72;3.50;;;15.70;99.90;;;;;;5061244;28;20040;-87
2022/10/17 08:28:26;;;;;;;4.65;3.80;;;15.80;99.90;;;;;;5066185;28;20053;-88
2022/10/17 08:30:51;;;;;;;8.63;3.88;;;15.80;99.90;;;;;;5048291;28;20044;-88
2022/10/17 08:33:17;;;;;;;6.00;4.63;;;15.80;99.90;;;;;;5064780;28;20013;-88
2022/10/17 08:35:43;;;;;;;10.75;3.83;;;15.80;99.90;;;;;;5048432;28;20032;-88
2022/10/17 08:38:09;;;;;;;3.92;3.63;;;15.80;99.90;;;;;;5065111;28;20025;-88
2022/10/17 08:40:35;;;;;;;5.10;3.53;;;15.80;99.90;;;;;;5066110;28;20021;-88
2022/10/17 08:43:30;;;;;;;4.28;3.72;;;15.80;99.90;;;;;;5048145;28;20047;-88
2022/10/17 08:46:05;;;;;;;7.28;4.10;;;15.80;99.90;;;;;;5048398;28;20087;-88
2022/10/17 08:48:38;;;;;;;3.35;3.15;;;15.80;99.90;;;;;;5048399;28;20037;-88
2022/10/17 08:51:26;;;;;;;4.65;4.25;;;15.80;99.90;;;;;;5064897;28;20029;-88
2022/10/17 08:53:59;;;;;;;7.07;4.15;;;15.90;99.90;;;;;;5046022;28;20063;-88
2022/10/17 08:56:43;;;;;;;3.95;3.58;;;15.90;99.90;;;;;;5028252;28;20041;-88
2022/10/17 08:59:16;;;;;;;4.10;3.42;;;15.90;99.90;;;;;;5044905;28;20025;-88
2022/10/17 09:02:11;;;;;;;5.25;4.72;;;15.90;99.90;;;;;;5031923;28;20029;-88
2022/10/17 09:04:37;;;;;;;3.53;3.05;;;15.90;99.90;;;;;;5041730;28;20048;-88
2022/10/17 09:07:13;;;;;;;4.32;3.92;;;15.90;99.90;;;;;;5064623;28;20025;-88
2022/10/17 09:10:08;;;;;;;4.97;3.92;;;15.90;99.90;;;;;;5050697;28;20025;-88
2022/10/17 09:12:42;;;;;;;6.40;3.15;;;15.80;99.90;;;;;;5065617;28;20059;-88
2022/10/17 09:15:39;;;;;;;6.03;4.20;;;15.90;99.90;;;;;;5064795;28;20432;-87
2022/10/17 09:18:22;;;;;;;3.90;3.50;;;15.80;99.90;;;;;;5064599;28;20025;-88
2022/10/17 09:20:53;;;;;;;9.70;3.67;;;15.90;99.90;;;;;;5064537;28;20378;-87
2022/10/17 09:23:26;;;;;;;7.25;4.10;;;15.90;99.90;;;;;;5064864;28;20024;-87
2022/10/17 09:25:54;;;;;;;4.78;3.67;;;15.90;99.90;;;;;;5064581;28;20064;-88
2022/10/17 09:28:35;;;;;;;4.43;4.13;;;15.90;99.90;;;;;;5047678;28;20052;-88
2022/10/17 09:31:01;;;;;;;4.18;3.38;;;15.90;99.90;;;;;;5066955;28;20033;-88
2022/10/17 09:33:39;;;;;;;3.88;2.63;;;15.90;99.90;;;;;;5068739;28;20025;-88
2022/10/17 09:36:31;;;;;;;6.43;3.42;;;15.90;99.90;;;;;;5051780;28;20093;-88
2022/10/17 09:39:01;;;;;;;5.78;4.25;;;15.90;99.90;;;;;;5068530;28;20517;-88
2022/10/17 09:41:38;;;;;;;11.38;3.92;;;15.90;99.90;;;;;;5067998;28;20025;-88
2022/10/17 09:44:19;;;;;;;4.10;3.72;;;16.00;99.90;;;;;;5068274;28;20036;-88
2022/10/17 09:47:00;;;;;;;4.38;3.97;;;15.90;99.90;;;;;;5068454;28;20036;-88
2022/10/17 09:49:35;;;;;;;4.65;3.95;;;15.90;99.90;;;;;;5050940;28;20033;-88
2022/10/17 09:52:04;;;;;;;5.20;3.78;;;15.90;99.90;;;;;;5067978;28;20030;-88
2022/10/17 09:54:42;;;;;;;6.70;3.78;;;15.90;99.90;;;;;;5068195;28;20466;-88
2022/10/17 09:57:09;;;;;;;7.57;4.13;;;15.90;99.90;;;;;;5067854;28;20029;-88
2022/10/17 09:59:38;;;;;;;4.57;4.18;;;15.90;99.90;;;;;;5067624;28;20037;-88
2022/10/17 10:02:18;;;;;;;4.43;4.03;;;15.90;99.90;;;;;;5051177;28;20092;-88
2022/10/17 10:04:52;;;;;;;3.78;3.47;;;15.90;99.90;;;;;;5051490;28;20037;-88
2022/10/17 10:07:19;;;;;;;11.25;5.10;;;15.90;99.90;;;;;;5067950;28;20029;-89
2022/10/17 10:09:47;;;;;;;3.47;3.17;;;15.90;99.90;;;;;;5050858;28;20116;-88
2022/10/17 10:12:25;;;;;;;6.38;4.18;;;15.90;99.90;;;;;;5050891;28;20029;-88
2022/10/17 10:14:51;;;;;;;4.78;3.67;;;15.90;99.90;;;;;;5067891;28;20082;-88
2022/10/17 10:17:26;;;;;;;3.80;3.50;;;15.90;99.90;;;;;;5067527;28;20021;-88
2022/10/17 10:19:53;;;;;;;4.55;4.10;;;15.90;99.90;;;;;;5067375;28;20037;-88
2022/10/17 10:22:22;;;;;;;5.65;5.10;;;15.90;99.90;;;;;;5068640;28;20025;-88
2022/10/17 10:25:07;;;;;;;3.97;3.67;;;15.90;99.90;;;;;;5068960;28;20033;-88
2022/10/17 10:27:33;;;;;;;7.35;5.07;;;15.90;99.90;;;;;;5068649;28;20040;-88
2022/10/17 10:30:00;;;;;;;3.60;3.28;;;15.90;99.90;;;;;;5067011;28;20040;-89
2022/10/17 10:32:32;;;;;;;4.75;4.35;;;15.90;99.90;;;;;;5050491;28;20025;-88
2022/10/17 10:34:59;;;;;;;4.35;4.00;;;15.90;99.90;;;;;;5067472;28;20509;-88
2022/10/17 10:37:27;;;;;;;5.93;4.03;;;16.00;99.90;;;;;;5067263;28;20028;-88
2022/10/17 10:40:03;;;;;;;4.15;3.70;;;16.00;99.90;;;;;;5050182;28;20028;-88
2022/10/17 10:42:35;;;;;;;5.78;4.05;;;16.00;99.90;;;;;;5065685;28;20021;-89
2022/10/17 10:45:21;;;;;;;4.28;3.90;;;16.00;99.90;;;;;;5067325;28;20059;-88
2022/10/17 10:47:59;;;;;;;4.53;4.13;;;16.00;99.90;;;;;;5068390;28;20474;-88
2022/10/17 10:50:28;;;;;;;4.68;3.80;;;16.10;99.90;;;;;;5066864;28;20088;-88
2022/10/17 10:53:03;;;;;;;5.05;4.43;;;16.00;99.90;;;;;;5050225;28;20021;-88
2022/10/17 10:55:34;;;;;;;4.13;3.78;;;16.30;99.90;;;;;;5066959;28;20029;-88
2022/10/17 10:58:18;;;;;;;4.13;3.72;;;16.00;99.90;;;;;;5066953;28;20029;-88
2022/10/17 11:00:46;;;;;;;4.00;3.63;;;16.00;99.90;;;;;;5066565;28;20060;-88
2022/10/17 11:03:18;;;;;;;4.30;3.97;;;16.00;99.90;;;;;;5066890;28;20097;-88
2022/10/17 11:05:50;;;;;;;5.05;4.20;;;16.00;99.90;;;;;;5066456;28;20035;-88
2022/10/17 11:08:28;;;;;;;6.70;4.05;;;16.10;99.90;;;;;;5067254;28;20074;-88
2022/10/17 11:11:12;;;;;;;3.50;3.20;;;16.00;99.90;;;;;;5047916;28;20069;-88
2022/10/17 11:14:03;;;;;;;4.68;4.32;;;16.00;99.90;;;;;;5061086;28;20494;-88
2022/10/17 11:16:40;;;;;;;5.55;3.58;;;16.00;99.90;;;;;;5066728;28;20078;-88
2022/10/17 11:19:23;;;;;;;4.20;3.80;;;16.00;99.90;;;;;;5065963;28;20029;-88
2022/10/17 11:22:08;;;;;;;3.97;3.60;;;16.00;99.90;;;;;;5066582;28;20029;-88
2022/10/17 11:24:47;;;;;;;3.85;3.55;;;16.00;99.90;;;;;;5063221;28;20037;-88
2022/10/17 11:27:13;;;;;;;4.78;4.38;;;16.00;99.90;;;;;;5063010;28;20041;-88
2022/10/17 11:29:41;;;;;;;4.43;4.03;;;16.10;99.90;;;;;;5047910;28;20039;-88
2022/10/17 11:32:31;;;;;;;4.47;4.07;;;16.10;99.90;;;;;;5046253;28;20021;-88
2022/10/17 11:35:06;;;;;;;;;;;16.10;99.90;;;;;;5046524;28;20017;-88
2022/10/17 11:37:39;;;;;;;4.90;4.50;;;16.10;99.90;;;;;;5046202;28;19921;-88
2022/10/17 11:40:16;;;;;;;6.18;4.95;;;16.10;99.90;;;;;;5046354;28;20034;-88
2022/10/17 11:43:09;;;;;;;8.38;4.05;;;16.10;99.90;;;;;;5046209;28;20033;-88
2022/10/17 11:45:42;;;;;;;5.18;4.75;;;16.10;99.90;;;;;;5046265;28;20032;-88
2022/10/17 11:48:39;;;;;;;4.63;4.22;;;16.10;99.90;;;;;;5047315;28;20089;-88
2022/10/17 11:51:11;;;;;;;4.10;3.80;;;16.10;99.90;;;;;;5045867;28;20052;-88
2022/10/17 11:54:03;;;;;;;3.67;3.40;;;16.10;99.90;;;;;;5048486;28;20052;-88
2022/10/17 11:56:35;;;;;;;6.55;4.10;;;16.20;99.90;;;;;;5065295;28;20112;-88
2022/10/17 11:59:43;;;;;;;6.00;4.40;;;16.10;99.90;;;;;;5048156;28;20088;-87
2022/10/17 12:02:53;;;;;;;4.95;4.55;;;16.10;99.90;;;;;;5048669;28;20041;-88
2022/10/17 12:05:34;;;;;;;5.80;4.70;;;16.10;99.90;;;;;;5039380;28;20056;-88
2022/10/17 12:08:08;;;;;;;5.85;5.07;;;16.10;99.90;;;;;;5065570;28;20033;-87
2022/10/17 12:10:46;;;;;;;6.93;6.32;;;16.10;99.90;;;;;;5063085;28;20029;-88
2022/10/17 12:13:26;;;;;;;6.15;4.97;;;16.10;99.90;;;;;;5045647;28;20063;-88
2022/10/17 12:16:11;;;;;;;4.22;3.83;;;16.10;99.90;;;;;;5064327;28;20032;-88
2022/10/17 12:18:37;;;;;;;7.32;5.15;;;16.20;99.90;;;;;;5065306;28;20025;-87
2022/10/17 12:21:03;;;;;;;4.43;4.05;;;16.20;99.90;;;;;;5065118;28;20037;-88
2022/10/17 12:23:30;;;;;;;8.43;3.90;;;16.20;99.90;;;;;;5065229;28;20032;-88
2022/10/17 12:26:05;;;;;;;4.28;3.88;;;16.20;99.90;;;;;;5047992;28;20025;-88
2022/10/17 12:28:43;;;;;;;4.57;4.22;;;16.20;99.90;;;;;;5066081;28;20056;-88
2022/10/17 12:31:24;;;;;;;6.82;4.00;;;16.20;99.90;;;;;;5066252;28;20108;-88
2022/10/17 12:33:52;;;;;;;8.80;3.95;;;16.30;99.90;;;;;;5048273;28;20052;-87
2022/10/17 12:36:19;;;;;;;5.22;4.70;;;16.20;99.90;;;;;;5048153;28;20028;-88
2022/10/17 12:38:48;;;;;;;8.63;4.35;;;16.30;99.90;;;;;;5047977;28;20021;-87
2022/10/17 12:41:15;;;;;;;4.80;4.38;;;16.30;99.90;;;;;;5048171;28;20017;-87
2022/10/17 12:43:53;;;;;;;4.40;4.05;;;16.30;99.90;;;;;;5064248;28;20048;-88
2022/10/17 12:46:56;;;;;;;5.18;4.70;;;16.30;99.90;;;;;;5044369;28;20100;-88
2022/10/17 12:49:41;;;;;;;4.50;3.83;;;16.30;99.90;;;;;;5051447;28;20029;-87
2022/10/17 12:52:16;;;;;;;7.97;4.97;;;16.30;99.90;;;;;;5048015;28;20059;-88
2022/10/17 12:54:55;;;;;;;5.28;3.72;;;16.30;99.90;;;;;;5048023;28;20466;-87
2022/10/17 12:57:49;;;;;;;3.83;3.23;;;16.30;99.90;;;;;;5062726;28;20025;-87
2022/10/17 13:00:35;;;;;;;5.68;4.00;;;16.30;99.90;;;;;;5064174;28;20114;-87
2022/10/17 13:03:17;;;;;;;6.68;4.72;;;16.40;99.90;;;;;;5064319;28;20036;-87
2022/10/17 13:05:54;;;;;;;5.45;4.22;;;16.40;99.90;;;;;;5062516;28;20055;-87
2022/10/17 13:08:31;;;;;;;7.63;4.95;;;16.40;99.90;;;;;;5063840;28;20032;-86
2022/10/17 13:10:57;;;;;;;4.07;3.70;;;16.40;99.90;;;;;;5065361;28;20070;-87
2022/10/17 13:13:42;;;;;;;6.22;5.55;;;16.40;99.90;;;;;;5063290;28;20049;-87
2022/10/17 13:16:10;;;;;;;9.60;5.13;;;16.40;99.90;;;;;;5064244;28;20478;-86
2022/10/17 13:18:36;;;;;;;7.00;4.45;;;16.40;99.90;;;;;;5064195;28;20048;-87